sensor_id;sensor_type;location;lat;lon;timestamp;pressure;altitude;pressure_sealevel;temperature;humidity
35649;BME280;21768;48.562;13.414;2023-04-26T00:01:58;97160.84;;;8.60;70.04
35649;BME280;21768;48.562;13.414;2023-04-26T00:04:25;97172.53;;;8.60;70.13
35649;BME280;21768;48.562;13.414;2023-04-26T00:06:53;97171.66;;;8.59;70.30
35649;BME280;21768;48.562;13.414;2023-04-26T00:09:18;97174.19;;;8.59;70.18
35649;BME280;21768;48.562;13.414;2023-04-26T00:11:44;97166.53;;;8.58;70.38
35649;BME280;21768;48.562;13.414;2023-04-26T00:14:09;97164.13;;;8.59;70.39
35649;BME280;21768;48.562;13.414;2023-04-26T00:16:35;97162.50;;;8.60;70.48
35649;BME280;21768;48.562;13.414;2023-04-26T00:19:01;97156.78;;;8.62;70.63
35649;BME280;21768;48.562;13.414;2023-04-26T00:21:26;97151.88;;;8.64;70.55
35649;BME280;21768;48.562;13.414;2023-04-26T00:23:52;97153.03;;;8.69;70.47
35649;BME280;21768;48.562;13.414;2023-04-26T00:26:18;97161.66;;;8.72;70.47
35649;BME280;21768;48.562;13.414;2023-04-26T00:28:43;97170.19;;;8.74;70.18
35649;BME280;21768;48.562;13.414;2023-04-26T00:31:13;97168.66;;;8.76;69.90
35649;BME280;21768;48.562;13.414;2023-04-26T00:33:39;97163.16;;;8.82;69.91
35649;BME280;21768;48.562;13.414;2023-04-26T00:36:04;97159.00;;;8.82;69.73
35649;BME280;21768;48.562;13.414;2023-04-26T00:38:30;97162.50;;;8.84;69.78
35649;BME280;21768;48.562;13.414;2023-04-26T00:40:55;97160.66;;;8.82;69.58
35649;BME280;21768;48.562;13.414;2023-04-26T00:43:21;97159.00;;;8.82;69.86
35649;BME280;21768;48.562;13.414;2023-04-26T00:45:46;97157.16;;;8.80;69.91
35649;BME280;21768;48.562;13.414;2023-04-26T00:48:11;97157.25;;;8.81;69.72
35649;BME280;21768;48.562;13.414;2023-04-26T00:50:37;97159.66;;;8.80;69.98
35649;BME280;21768;48.562;13.414;2023-04-26T00:53:03;97168.75;;;8.78;70.29
35649;BME280;21768;48.562;13.414;2023-04-26T00:55:28;97173.03;;;8.79;70.50
35649;BME280;21768;48.562;13.414;2023-04-26T00:57:54;97174.75;;;8.80;70.31
35649;BME280;21768;48.562;13.414;2023-04-26T01:00:19;97182.72;;;8.86;70.48
35649;BME280;21768;48.562;13.414;2023-04-26T01:02:45;97164.56;;;8.90;70.20
35649;BME280;21768;48.562;13.414;2023-04-26T01:05:11;97169.88;;;8.95;69.88
35649;BME280;21768;48.562;13.414;2023-04-26T01:07:36;97159.91;;;8.96;69.89
35649;BME280;21768;48.562;13.414;2023-04-26T01:10:05;97153.91;;;8.94;70.07
35649;BME280;21768;48.562;13.414;2023-04-26T01:12:32;97156.22;;;8.91;70.19
35649;BME280;21768;48.562;13.414;2023-04-26T01:14:58;97154.28;;;8.87;70.14
35649;BME280;21768;48.562;13.414;2023-04-26T01:17:24;97160.09;;;8.86;70.06
35649;BME280;21768;48.562;13.414;2023-04-26T01:19:50;97164.25;;;8.85;70.27
35649;BME280;21768;48.562;13.414;2023-04-26T01:22:16;97166.66;;;8.84;70.18
35649;BME280;21768;48.562;13.414;2023-04-26T01:24:43;97171.69;;;8.84;70.22
35649;BME280;21768;48.562;13.414;2023-04-26T01:27:10;97176.72;;;8.84;70.29
35649;BME280;21768;48.562;13.414;2023-04-26T01:29:35;97171.13;;;8.88;69.93
35649;BME280;21768;48.562;13.414;2023-04-26T01:32:01;97176.16;;;8.88;69.86
35649;BME280;21768;48.562;13.414;2023-04-26T01:34:26;97171.69;;;8.84;70.04
35649;BME280;21768;48.562;13.414;2023-04-26T01:36:51;97185.69;;;8.80;70.17
35649;BME280;21768;48.562;13.414;2023-04-26T01:39:18;97192.16;;;8.77;70.23
35649;BME280;21768;48.562;13.414;2023-04-26T01:41:43;97188.44;;;8.72;70.28
35649;BME280;21768;48.562;13.414;2023-04-26T01:44:08;97191.63;;;8.69;70.30
35649;BME280;21768;48.562;13.414;2023-04-26T01:46:34;97199.75;;;8.65;69.95
35649;BME280;21768;48.562;13.414;2023-04-26T01:48:59;97189.16;;;8.58;69.96
35649;BME280;21768;48.562;13.414;2023-04-26T01:51:25;97198.03;;;8.52;69.91
35649;BME280;21768;48.562;13.414;2023-04-26T01:53:51;97196.94;;;8.49;70.00
35649;BME280;21768;48.562;13.414;2023-04-26T01:56:17;97192.56;;;8.46;69.89
35649;BME280;21768;48.562;13.414;2023-04-26T01:58:43;97194.97;;;8.45;69.82
35649;BME280;21768;48.562;13.414;2023-04-26T02:01:08;97198.06;;;8.41;69.75
35649;BME280;21768;48.562;13.414;2023-04-26T02:03:34;97194.56;;;8.39;69.65
35649;BME280;21768;48.562;13.414;2023-04-26T02:06:00;97185.38;;;8.39;69.72
35649;BME280;21768;48.562;13.414;2023-04-26T02:08:26;97185.16;;;8.36;69.52
35649;BME280;21768;48.562;13.414;2023-04-26T02:10:51;97179.06;;;8.33;69.78
35649;BME280;21768;48.562;13.414;2023-04-26T02:13:17;97191.47;;;8.31;69.79
35649;BME280;21768;48.562;13.414;2023-04-26T02:15:48;97199.16;;;8.33;69.84
35649;BME280;21768;48.562;13.414;2023-04-26T02:18:14;97195.13;;;8.35;69.41
35649;BME280;21768;48.562;13.414;2023-04-26T02:20:40;97193.47;;;8.35;69.42
35649;BME280;21768;48.562;13.414;2023-04-26T02:23:07;97194.25;;;8.34;69.58
35649;BME280;21768;48.562;13.414;2023-04-26T02:25:33;97193.47;;;8.35;69.54
35649;BME280;21768;48.562;13.414;2023-04-26T02:27:59;97202.66;;;8.35;69.25
35649;BME280;21768;48.562;13.414;2023-04-26T02:30:24;97195.00;;;8.33;69.58
35649;BME280;21768;48.562;13.414;2023-04-26T02:32:52;97194.00;;;8.31;69.26
35649;BME280;21768;48.562;13.414;2023-04-26T02:35:18;97200.44;;;8.28;69.26
35649;BME280;21768;48.562;13.414;2023-04-26T02:37:43;97193.34;;;8.22;69.03
35649;BME280;21768;48.562;13.414;2023-04-26T02:40:13;97189.63;;;8.17;68.97
35649;BME280;21768;48.562;13.414;2023-04-26T02:42:38;97188.44;;;8.12;68.99
35649;BME280;21768;48.562;13.414;2023-04-26T02:45:04;97186.25;;;8.05;68.76
35649;BME280;21768;48.562;13.414;2023-04-26T02:47:29;97187.56;;;8.00;68.85
35649;BME280;21768;48.562;13.414;2023-04-26T02:49:55;97183.84;;;7.95;68.52
35649;BME280;21768;48.562;13.414;2023-04-26T02:52:20;97184.50;;;7.92;68.75
35649;BME280;21768;48.562;13.414;2023-04-26T02:54:45;97186.81;;;7.89;68.80
35649;BME280;21768;48.562;13.414;2023-04-26T02:57:11;97187.38;;;7.85;68.51
35649;BME280;21768;48.562;13.414;2023-04-26T02:59:37;97182.13;;;7.82;68.59
35649;BME280;21768;48.562;13.414;2023-04-26T03:02:02;97191.06;;;7.78;68.48
35649;BME280;21768;48.562;13.414;2023-04-26T03:04:27;97187.56;;;7.76;68.54
35649;BME280;21768;48.562;13.414;2023-04-26T03:06:54;97193.47;;;7.77;68.66
35649;BME280;21768;48.562;13.414;2023-04-26T03:09:19;97197.38;;;7.73;68.91
35649;BME280;21768;48.562;13.414;2023-04-26T03:11:45;97196.75;;;7.76;68.79
35649;BME280;21768;48.562;13.414;2023-04-26T03:14:10;97195.75;;;7.74;68.92
35649;BME280;21768;48.562;13.414;2023-04-26T03:16:42;97195.66;;;7.72;68.95
35649;BME280;21768;48.562;13.414;2023-04-26T03:19:08;97204.16;;;7.74;69.15
35649;BME280;21768;48.562;13.414;2023-04-26T03:21:34;97183.31;;;7.75;69.37
35649;BME280;21768;48.562;13.414;2023-04-26T03:23:59;97200.34;;;7.79;69.01
35649;BME280;21768;48.562;13.414;2023-04-26T03:26:25;97194.56;;;7.80;69.09
35649;BME280;21768;48.562;13.414;2023-04-26T03:28:51;97189.31;;;7.77;68.88
35649;BME280;21768;48.562;13.414;2023-04-26T03:31:16;97189.31;;;7.77;69.03
35649;BME280;21768;48.562;13.414;2023-04-26T03:33:41;97195.22;;;7.78;69.21
35649;BME280;21768;48.562;13.414;2023-04-26T03:36:07;97192.16;;;7.70;69.27
35649;BME280;21768;48.562;13.414;2023-04-26T03:38:33;97203.53;;;7.65;69.19
35649;BME280;21768;48.562;13.414;2023-04-26T03:40:58;97201.31;;;7.58;69.28
35649;BME280;21768;48.562;13.414;2023-04-26T03:43:24;97207.63;;;7.53;69.30
35649;BME280;21768;48.562;13.414;2023-04-26T03:45:51;97219.72;;;7.47;69.50
35649;BME280;21768;48.562;13.414;2023-04-26T03:48:16;97215.22;;;7.43;69.56
35649;BME280;21768;48.562;13.414;2023-04-26T03:50:42;97214.47;;;7.44;69.42
35649;BME280;21768;48.562;13.414;2023-04-26T03:53:09;97220.25;;;7.43;69.26
35649;BME280;21768;48.562;13.414;2023-04-26T03:55:36;97222.47;;;7.38;69.34
35649;BME280;21768;48.562;13.414;2023-04-26T03:58:01;97213.06;;;7.36;69.25
35649;BME280;21768;48.562;13.414;2023-04-26T04:00:27;97218.84;;;7.35;69.28
35649;BME280;21768;48.562;13.414;2023-04-26T04:02:53;97218.09;;;7.36;69.23
35649;BME280;21768;48.562;13.414;2023-04-26T04:05:18;97223.75;;;7.33;69.36
35649;BME280;21768;48.562;13.414;2023-04-26T04:07:43;97214.59;;;7.34;69.20
35649;BME280;21768;48.562;13.414;2023-04-26T04:10:09;97217.84;;;7.33;69.24
35649;BME280;21768;48.562;13.414;2023-04-26T04:12:35;97218.38;;;7.29;69.29
35649;BME280;21768;48.562;13.414;2023-04-26T04:15:00;97227.53;;;7.28;69.46
35649;BME280;21768;48.562;13.414;2023-04-26T04:17:26;97227.41;;;7.27;69.53
35649;BME280;21768;48.562;13.414;2023-04-26T04:19:52;97223.28;;;7.27;69.56
35649;BME280;21768;48.562;13.414;2023-04-26T04:22:17;97231.69;;;7.28;69.53
35649;BME280;21768;48.562;13.414;2023-04-26T04:24:42;97228.66;;;7.32;69.62
35649;BME280;21768;48.562;13.414;2023-04-26T04:27:09;97231.84;;;7.41;69.73
35649;BME280;21768;48.562;13.414;2023-04-26T04:29:34;97235.88;;;7.50;69.59
35649;BME280;21768;48.562;13.414;2023-04-26T04:32:00;97237.09;;;7.56;69.16
35649;BME280;21768;48.562;13.414;2023-04-26T04:34:26;97243.47;;;7.62;69.33
35649;BME280;21768;48.562;13.414;2023-04-26T04:36:51;97246.38;;;7.68;69.36
35649;BME280;21768;48.562;13.414;2023-04-26T04:39:17;97249.34;;;7.74;69.40
35649;BME280;21768;48.562;13.414;2023-04-26T04:41:42;97246.66;;;7.83;69.39
35649;BME280;21768;48.562;13.414;2023-04-26T04:44:16;97247.09;;;7.89;69.50
35649;BME280;21768;48.562;13.414;2023-04-26T04:46:42;97252.44;;;7.94;69.54
35649;BME280;21768;48.562;13.414;2023-04-26T04:49:08;97256.38;;;8.02;69.59
35649;BME280;21768;48.562;13.414;2023-04-26T04:51:34;97261.41;;;8.02;69.31
35649;BME280;21768;48.562;13.414;2023-04-26T04:54:17;97263.50;;;8.07;69.18
35649;BME280;21768;48.562;13.414;2023-04-26T04:56:43;97270.16;;;8.07;69.13
35649;BME280;21768;48.562;13.414;2023-04-26T04:59:09;97275.63;;;8.13;68.95
35649;BME280;21768;48.562;13.414;2023-04-26T05:01:34;97274.09;;;8.15;69.32
35649;BME280;21768;48.562;13.414;2023-04-26T05:04:01;97273.75;;;8.22;68.99
35649;BME280;21768;48.562;13.414;2023-04-26T05:06:27;97285.50;;;8.33;69.23
35649;BME280;21768;48.562;13.414;2023-04-26T05:08:55;97282.66;;;8.40;69.31
35649;BME280;21768;48.562;13.414;2023-04-26T05:11:20;97284.59;;;8.44;69.22
35649;BME280;21768;48.562;13.414;2023-04-26T05:13:47;97273.00;;;8.46;69.14
35649;BME280;21768;48.562;13.414;2023-04-26T05:16:12;97275.19;;;8.53;69.12
35649;BME280;21768;48.562;13.414;2023-04-26T05:18:38;97285.47;;;8.57;69.16
35649;BME280;21768;48.562;13.414;2023-04-26T05:21:03;97278.91;;;8.59;69.21
35649;BME280;21768;48.562;13.414;2023-04-26T05:23:29;97270.59;;;8.60;69.30
35649;BME280;21768;48.562;13.414;2023-04-26T05:25:55;97271.47;;;8.60;69.44
35649;BME280;21768;48.562;13.414;2023-04-26T05:28:20;97284.47;;;8.66;68.87
35649;BME280;21768;48.562;13.414;2023-04-26T05:30:45;97288.28;;;8.73;68.62
35649;BME280;21768;48.562;13.414;2023-04-26T05:33:11;97293.31;;;8.73;68.30
35649;BME280;21768;48.562;13.414;2023-04-26T05:35:36;97284.56;;;8.68;67.91
35649;BME280;21768;48.562;13.414;2023-04-26T05:38:02;97293.56;;;8.64;67.98
35649;BME280;21768;48.562;13.414;2023-04-26T05:40:28;97285.25;;;8.65;68.24
35649;BME280;21768;48.562;13.414;2023-04-26T05:42:53;97286.75;;;8.75;68.18
35649;BME280;21768;48.562;13.414;2023-04-26T05:45:18;97283.03;;;8.81;68.23
35649;BME280;21768;48.562;13.414;2023-04-26T05:47:44;97275.25;;;8.90;68.21
35649;BME280;21768;48.562;13.414;2023-04-26T05:50:11;97265.03;;;9.00;68.23
35649;BME280;21768;48.562;13.414;2023-04-26T05:52:37;97272.34;;;9.09;68.21
35649;BME280;21768;48.562;13.414;2023-04-26T05:55:02;97284.66;;;9.17;67.57
35649;BME280;21768;48.562;13.414;2023-04-26T05:57:28;97302.66;;;9.10;67.04
35649;BME280;21768;48.562;13.414;2023-04-26T05:59:54;97301.78;;;9.10;67.39
35649;BME280;21768;48.562;13.414;2023-04-26T06:02:19;97307.63;;;9.22;67.39
35649;BME280;21768;48.562;13.414;2023-04-26T06:04:44;97314.84;;;9.29;66.96
35649;BME280;21768;48.562;13.414;2023-04-26T06:07:10;97327.31;;;9.28;66.72
35649;BME280;21768;48.562;13.414;2023-04-26T06:09:36;97320.53;;;9.27;66.81
35649;BME280;21768;48.562;13.414;2023-04-26T06:12:01;97322.50;;;9.31;66.71
35649;BME280;21768;48.562;13.414;2023-04-26T06:14:28;97318.28;;;9.43;66.62
35649;BME280;21768;48.562;13.414;2023-04-26T06:16:53;97328.63;;;9.59;66.69
35649;BME280;21768;48.562;13.414;2023-04-26T06:19:18;97330.41;;;9.73;65.84
35649;BME280;21768;48.562;13.414;2023-04-26T06:21:44;97324.03;;;9.78;65.43
35649;BME280;21768;48.562;13.414;2023-04-26T06:24:09;97325.81;;;9.93;65.40
35649;BME280;21768;48.562;13.414;2023-04-26T06:26:35;97331.00;;;10.07;65.35
35649;BME280;21768;48.562;13.414;2023-04-26T06:29:00;97324.19;;;10.31;64.53
35649;BME280;21768;48.562;13.414;2023-04-26T06:31:25;97332.53;;;10.43;63.51
35649;BME280;21768;48.562;13.414;2023-04-26T06:33:51;97322.47;;;10.56;63.41
35649;BME280;21768;48.562;13.414;2023-04-26T06:36:16;97336.50;;;10.66;63.64
35649;BME280;21768;48.562;13.414;2023-04-26T06:38:41;97324.59;;;10.64;63.29
35649;BME280;21768;48.562;13.414;2023-04-26T06:41:07;97325.06;;;10.71;62.95
35649;BME280;21768;48.562;13.414;2023-04-26T06:43:32;97324.97;;;10.70;62.08
35649;BME280;21768;48.562;13.414;2023-04-26T06:45:58;97324.00;;;10.68;62.02
35649;BME280;21768;48.562;13.414;2023-04-26T06:48:23;97330.59;;;10.66;61.19
35649;BME280;21768;48.562;13.414;2023-04-26T06:50:49;97339.34;;;10.57;60.55
35649;BME280;21768;48.562;13.414;2023-04-26T06:53:14;97333.81;;;10.50;61.04
35649;BME280;21768;48.562;13.414;2023-04-26T06:55:39;97333.91;;;10.51;61.81
35649;BME280;21768;48.562;13.414;2023-04-26T06:58:05;97339.53;;;10.61;61.97
35649;BME280;21768;48.562;13.414;2023-04-26T07:00:30;97346.50;;;10.91;59.47
35649;BME280;21768;48.562;13.414;2023-04-26T07:02:56;97350.84;;;10.94;58.78
35649;BME280;21768;48.562;13.414;2023-04-26T07:05:21;97339.88;;;10.93;58.77
35649;BME280;21768;48.562;13.414;2023-04-26T07:07:46;97335.56;;;11.18;58.60
35649;BME280;21768;48.562;13.414;2023-04-26T07:10:12;97334.72;;;11.46;56.69
35649;BME280;21768;48.562;13.414;2023-04-26T07:12:38;97338.13;;;11.74;57.88
35649;BME280;21768;48.562;13.414;2023-04-26T07:15:04;97341.72;;;11.78;54.36
35649;BME280;21768;48.562;13.414;2023-04-26T07:17:31;97335.47;;;11.58;53.96
35649;BME280;21768;48.562;13.414;2023-04-26T07:19:56;97339.47;;;11.54;54.52
35649;BME280;21768;48.562;13.414;2023-04-26T07:22:22;97335.66;;;11.61;54.79
35649;BME280;21768;48.562;13.414;2023-04-26T07:24:47;97328.22;;;11.64;53.44
35649;BME280;21768;48.562;13.414;2023-04-26T07:27:13;97337.91;;;11.56;52.47
35649;BME280;21768;48.562;13.414;2023-04-26T07:29:38;97328.84;;;11.60;52.85
35649;BME280;21768;48.562;13.414;2023-04-26T07:32:04;97340.88;;;11.64;51.19
35649;BME280;21768;48.562;13.414;2023-04-26T07:34:29;97328.66;;;11.57;52.92
35649;BME280;21768;48.562;13.414;2023-04-26T07:36:55;97329.47;;;11.43;51.49
35649;BME280;21768;48.562;13.414;2023-04-26T07:39:20;97335.84;;;11.23;52.29
35649;BME280;21768;48.562;13.414;2023-04-26T07:41:46;97336.00;;;11.11;51.46
35649;BME280;21768;48.562;13.414;2023-04-26T07:44:11;97335.47;;;11.17;51.94
35649;BME280;21768;48.562;13.414;2023-04-26T07:46:37;97343.41;;;11.36;52.26
35649;BME280;21768;48.562;13.414;2023-04-26T07:49:02;97342.78;;;11.53;50.77
35649;BME280;21768;48.562;13.414;2023-04-26T07:51:28;97337.25;;;11.46;50.88
35649;BME280;21768;48.562;13.414;2023-04-26T07:53:54;97345.97;;;11.51;50.88
35649;BME280;21768;48.562;13.414;2023-04-26T07:56:20;97342.88;;;11.70;51.36
35649;BME280;21768;48.562;13.414;2023-04-26T07:58:48;97331.94;;;12.12;50.11
35649;BME280;21768;48.562;13.414;2023-04-26T08:01:13;97331.31;;;12.45;50.17
35649;BME280;21768;48.562;13.414;2023-04-26T08:03:38;97337.84;;;12.56;49.37
35649;BME280;21768;48.562;13.414;2023-04-26T08:06:04;97339.91;;;12.64;47.07
35649;BME280;21768;48.562;13.414;2023-04-26T08:08:29;97334.00;;;12.94;46.33
35649;BME280;21768;48.562;13.414;2023-04-26T08:10:56;97335.81;;;13.11;45.40
35649;BME280;21768;48.562;13.414;2023-04-26T08:13:21;97337.28;;;13.22;44.68
35649;BME280;21768;48.562;13.414;2023-04-26T08:15:47;97335.72;;;13.24;45.41
35649;BME280;21768;48.562;13.414;2023-04-26T08:18:12;97337.72;;;13.15;45.08
35649;BME280;21768;48.562;13.414;2023-04-26T08:20:38;97334.34;;;13.00;46.75
35649;BME280;21768;48.562;13.414;2023-04-26T08:23:03;97339.88;;;12.93;46.16
35649;BME280;21768;48.562;13.414;2023-04-26T08:25:29;97334.22;;;12.82;44.29
35649;BME280;21768;48.562;13.414;2023-04-26T08:27:54;97336.38;;;12.91;42.50
35649;BME280;21768;48.562;13.414;2023-04-26T08:30:20;97340.31;;;13.32;43.88
35649;BME280;21768;48.562;13.414;2023-04-26T08:32:45;97333.22;;;13.57;43.39
35649;BME280;21768;48.562;13.414;2023-04-26T08:35:11;97326.53;;;13.75;42.76
35649;BME280;21768;48.562;13.414;2023-04-26T08:37:37;97345.66;;;13.85;43.85
35649;BME280;21768;48.562;13.414;2023-04-26T08:40:04;97335.09;;;13.77;42.12
35649;BME280;21768;48.562;13.414;2023-04-26T08:42:42;97330.59;;;14.22;41.41
35649;BME280;21768;48.562;13.414;2023-04-26T08:45:09;97333.16;;;15.09;39.85
35649;BME280;21768;48.562;13.414;2023-04-26T08:47:55;97336.22;;;15.21;40.22
35649;BME280;21768;48.562;13.414;2023-04-26T08:50:23;97338.56;;;16.12;37.68
35649;BME280;21768;48.562;13.414;2023-04-26T08:52:50;97333.06;;;15.82;37.01
35649;BME280;21768;48.562;13.414;2023-04-26T08:55:18;97329.44;;;15.40;40.04
35649;BME280;21768;48.562;13.414;2023-04-26T08:57:48;97326.84;;;14.83;37.42
35649;BME280;21768;48.562;13.414;2023-04-26T09:00:14;97328.16;;;14.75;38.08
35649;BME280;21768;48.562;13.414;2023-04-26T09:02:41;97328.94;;;14.56;38.12
35649;BME280;21768;48.562;13.414;2023-04-26T09:05:09;97330.63;;;14.06;38.80
35649;BME280;21768;48.562;13.414;2023-04-26T09:07:43;97339.31;;;13.77;39.38
35649;BME280;21768;48.562;13.414;2023-04-26T09:10:11;97339.88;;;13.55;38.65
35649;BME280;21768;48.562;13.414;2023-04-26T09:12:36;97331.44;;;14.05;39.89
35649;BME280;21768;48.562;13.414;2023-04-26T09:15:03;97332.50;;;14.78;36.76
35649;BME280;21768;48.562;13.414;2023-04-26T09:17:33;97332.16;;;15.25;36.34
35649;BME280;21768;48.562;13.414;2023-04-26T09:20:00;97335.25;;;15.74;35.57
35649;BME280;21768;48.562;13.414;2023-04-26T09:22:33;97334.13;;;15.30;35.61
35649;BME280;21768;48.562;13.414;2023-04-26T09:25:00;97332.78;;;14.48;37.92
35649;BME280;21768;48.562;13.414;2023-04-26T09:27:40;97340.78;;;14.74;37.67
35649;BME280;21768;48.562;13.414;2023-04-26T09:35:33;97336.41;;;14.71;35.42
35649;BME280;21768;48.562;13.414;2023-04-26T09:40:32;97341.31;;;14.16;36.84
35649;BME280;21768;48.562;13.414;2023-04-26T09:43:06;97342.81;;;14.13;37.62
35649;BME280;21768;48.562;13.414;2023-04-26T09:45:42;97341.75;;;13.91;37.29
35649;BME280;21768;48.562;13.414;2023-04-26T09:50:40;97340.00;;;15.29;35.46
35649;BME280;21768;48.562;13.414;2023-04-26T09:53:06;97342.53;;;16.05;31.68
35649;BME280;21768;48.562;13.414;2023-04-26T09:55:32;97334.63;;;17.02;30.70
35649;BME280;21768;48.562;13.414;2023-04-26T09:57:57;97324.06;;;17.37;30.20
35649;BME280;21768;48.562;13.414;2023-04-26T10:00:25;97336.09;;;16.34;32.75
35649;BME280;21768;48.562;13.414;2023-04-26T10:02:52;97330.47;;;15.62;32.94
35649;BME280;21768;48.562;13.414;2023-04-26T10:05:18;97328.31;;;15.15;34.44
35649;BME280;21768;48.562;13.414;2023-04-26T10:07:45;97336.69;;;14.95;34.14
35649;BME280;21768;48.562;13.414;2023-04-26T10:10:11;97334.78;;;15.83;33.39
35649;BME280;21768;48.562;13.414;2023-04-26T10:12:36;97336.94;;;16.54;32.09
35649;BME280;21768;48.562;13.414;2023-04-26T10:15:02;97321.94;;;18.70;29.67
35649;BME280;21768;48.562;13.414;2023-04-26T10:17:28;97320.03;;;18.14;30.64
35649;BME280;21768;48.562;13.414;2023-04-26T10:19:56;97311.91;;;18.51;29.85
35649;BME280;21768;48.562;13.414;2023-04-26T10:22:26;97314.53;;;18.52;29.54
35649;BME280;21768;48.562;13.414;2023-04-26T10:24:53;97307.81;;;17.35;31.63
35649;BME280;21768;48.562;13.414;2023-04-26T10:30:11;97312.00;;;16.05;31.52
35649;BME280;21768;48.562;13.414;2023-04-26T10:35:26;97307.53;;;17.50;31.63
35649;BME280;21768;48.562;13.414;2023-04-26T10:40:31;97297.50;;;21.77;28.42
35649;BME280;21768;48.562;13.414;2023-04-26T10:45:42;97311.75;;;20.50;26.01
35649;BME280;21768;48.562;13.414;2023-04-26T10:48:19;97308.94;;;18.91;28.18
35649;BME280;21768;48.562;13.414;2023-04-26T10:51:08;97311.03;;;17.29;30.38
35649;BME280;21768;48.562;13.414;2023-04-26T10:56:01;97304.91;;;16.19;33.70
35649;BME280;21768;48.562;13.414;2023-04-26T10:58:28;97306.03;;;16.46;33.12
35649;BME280;21768;48.562;13.414;2023-04-26T11:01:08;97298.56;;;18.09;31.11
35649;BME280;21768;48.562;13.414;2023-04-26T11:03:36;97293.63;;;19.19;30.93
35649;BME280;21768;48.562;13.414;2023-04-26T11:06:10;97292.53;;;20.01;29.00
35649;BME280;21768;48.562;13.414;2023-04-26T11:08:39;97283.78;;;19.03;29.16
35649;BME280;21768;48.562;13.414;2023-04-26T11:11:09;97280.19;;;17.93;31.03
35649;BME280;21768;48.562;13.414;2023-04-26T11:13:39;97284.06;;;17.14;31.95
35649;BME280;21768;48.562;13.414;2023-04-26T11:16:10;97290.41;;;16.58;32.47
35649;BME280;21768;48.562;13.414;2023-04-26T11:18:38;97293.88;;;16.18;33.89
35649;BME280;21768;48.562;13.414;2023-04-26T11:21:05;97291.09;;;15.93;32.76
35649;BME280;21768;48.562;13.414;2023-04-26T11:23:31;97293.56;;;16.52;32.85
35649;BME280;21768;48.562;13.414;2023-04-26T11:26:01;97286.28;;;17.27;32.06
35649;BME280;21768;48.562;13.414;2023-04-26T11:28:28;97284.13;;;17.38;31.42
35649;BME280;21768;48.562;13.414;2023-04-26T11:30:53;97285.13;;;16.96;30.38
35649;BME280;21768;48.562;13.414;2023-04-26T11:33:20;97289.47;;;16.56;32.35
35649;BME280;21768;48.562;13.414;2023-04-26T11:35:54;97285.47;;;16.62;31.17
35649;BME280;21768;48.562;13.414;2023-04-26T11:38:26;97275.06;;;16.56;31.37
35649;BME280;21768;48.562;13.414;2023-04-26T11:43:19;97267.72;;;17.07;33.50
35649;BME280;21768;48.562;13.414;2023-04-26T11:45:45;97270.56;;;17.39;31.90
35649;BME280;21768;48.562;13.414;2023-04-26T11:48:11;97273.03;;;17.61;33.13
35649;BME280;21768;48.562;13.414;2023-04-26T11:50:38;97265.22;;;17.32;31.78
35649;BME280;21768;48.562;13.414;2023-04-26T11:53:06;97272.56;;;16.79;33.07
35649;BME280;21768;48.562;13.414;2023-04-26T11:55:32;97270.81;;;16.36;32.55
35649;BME280;21768;48.562;13.414;2023-04-26T11:57:59;97276.84;;;15.96;32.87
35649;BME280;21768;48.562;13.414;2023-04-26T12:00:26;97282.28;;;15.65;33.60
35649;BME280;21768;48.562;13.414;2023-04-26T12:02:51;97282.06;;;15.42;34.40
35649;BME280;21768;48.562;13.414;2023-04-26T12:05:24;97286.84;;;15.16;34.89
35649;BME280;21768;48.562;13.414;2023-04-26T12:07:54;97290.53;;;15.04;34.68
35649;BME280;21768;48.562;13.414;2023-04-26T12:10:24;97295.03;;;15.09;34.11
35649;BME280;21768;48.562;13.414;2023-04-26T12:12:51;97290.81;;;14.92;34.84
35649;BME280;21768;48.562;13.414;2023-04-26T12:15:18;97291.66;;;15.10;34.43
35649;BME280;21768;48.562;13.414;2023-04-26T12:18:06;97281.25;;;15.43;34.18
35649;BME280;21768;48.562;13.414;2023-04-26T12:20:36;97276.25;;;15.63;33.02
35649;BME280;21768;48.562;13.414;2023-04-26T12:23:11;97271.38;;;15.49;33.03
35649;BME280;21768;48.562;13.414;2023-04-26T12:25:38;97289.69;;;15.42;33.94
35649;BME280;21768;48.562;13.414;2023-04-26T12:28:06;97284.31;;;15.16;33.70
35649;BME280;21768;48.562;13.414;2023-04-26T12:30:36;97295.03;;;14.91;34.54
35649;BME280;21768;48.562;13.414;2023-04-26T12:33:02;97289.31;;;14.78;35.99
35649;BME280;21768;48.562;13.414;2023-04-26T12:35:28;97294.00;;;14.88;34.71
35649;BME280;21768;48.562;13.414;2023-04-26T12:37:53;97286.47;;;15.07;34.72
35649;BME280;21768;48.562;13.414;2023-04-26T12:40:22;97291.63;;;15.28;33.94
35649;BME280;21768;48.562;13.414;2023-04-26T12:42:48;97274.84;;;15.51;33.10
35649;BME280;21768;48.562;13.414;2023-04-26T12:45:14;97283.13;;;15.85;34.18
35649;BME280;21768;48.562;13.414;2023-04-26T12:47:40;97281.31;;;16.02;33.01
35649;BME280;21768;48.562;13.414;2023-04-26T12:50:06;97279.94;;;15.70;34.18
35649;BME280;21768;48.562;13.414;2023-04-26T12:52:31;97286.47;;;15.46;32.70
35649;BME280;21768;48.562;13.414;2023-04-26T12:54:57;97285.03;;;15.14;33.45
35649;BME280;21768;48.562;13.414;2023-04-26T12:57:23;97285.31;;;15.20;33.38
35649;BME280;21768;48.562;13.414;2023-04-26T12:59:49;97277.19;;;15.27;33.41
35649;BME280;21768;48.562;13.414;2023-04-26T13:02:15;97279.06;;;15.31;33.14
35649;BME280;21768;48.562;13.414;2023-04-26T13:04:40;97275.38;;;15.24;33.60
35649;BME280;21768;48.562;13.414;2023-04-26T13:07:06;97282.25;;;15.08;33.83
35649;BME280;21768;48.562;13.414;2023-04-26T13:09:32;97286.59;;;14.92;34.10
35649;BME280;21768;48.562;13.414;2023-04-26T13:11:57;97286.31;;;15.04;35.77
35649;BME280;21768;48.562;13.414;2023-04-26T13:14:22;97286.47;;;15.26;35.64
35649;BME280;21768;48.562;13.414;2023-04-26T13:16:48;97276.91;;;15.40;34.42
35649;BME280;21768;48.562;13.414;2023-04-26T13:19:14;97280.38;;;15.23;33.96